Time;durP1;ratioP1;P1;durP2;ratioP2;P2;SDS_P1;SDS_P2;PMS_P1;PMS_P2;Temp;Humidity;BMP_temperature;BMP_pressure;BME280_temperature;BME280_humidity;BME280_pressure;Samples;Min_cycle;Max_cycle;Signal;HPM_P1;HPM_P2
2022/12/28 00:02:03;;;;;;;17.30;5.47;;;7.90;99.90;;;;;;5085520;28;20025;-56
2022/12/28 00:04:29;;;;;;;15.15;5.78;;;7.90;99.90;;;;;;5084050;28;20040;-56
2022/12/28 00:06:54;;;;;;;20.23;5.65;;;7.90;99.90;;;;;;5085692;28;20024;-57
2022/12/28 00:09:20;;;;;;;15.68;5.80;;;7.90;99.90;;;;;;5085485;28;20100;-56
2022/12/28 00:11:46;;;;;;;14.68;5.82;;;7.90;99.90;;;;;;5085554;28;20440;-55
2022/12/28 00:14:11;;;;;;;15.02;5.55;;;7.90;99.90;;;;;;5085339;28;20021;-57
2022/12/28 00:16:38;;;;;;;17.10;5.60;;;7.90;99.90;;;;;;5084110;28;20027;-56
2022/12/28 00:19:06;;;;;;;12.40;5.57;;;7.90;99.90;;;;;;5083934;28;20025;-57
2022/12/28 00:21:32;;;;;;;16.95;5.85;;;7.80;99.90;;;;;;5084203;28;20040;-56
2022/12/28 00:23:58;;;;;;;12.82;5.38;;;7.80;99.90;;;;;;5083896;28;20052;-57
2022/12/28 00:26:24;;;;;;;13.02;5.75;;;7.80;99.90;;;;;;5083906;28;20029;-57
2022/12/28 00:28:50;;;;;;;19.00;5.93;;;7.80;99.90;;;;;;5085113;28;20033;-56
2022/12/28 00:31:15;;;;;;;11.07;5.78;;;7.80;99.90;;;;;;5085020;28;20040;-57
2022/12/28 00:33:41;;;;;;;13.68;5.72;;;7.80;99.90;;;;;;5083701;28;20032;-57
2022/12/28 00:36:08;;;;;;;14.40;5.78;;;7.80;99.90;;;;;;5085037;28;20066;-57
2022/12/28 00:38:34;;;;;;;9.98;5.63;;;7.70;99.90;;;;;;5083952;28;20084;-56
2022/12/28 00:41:00;;;;;;;15.93;6.00;;;7.70;99.90;;;;;;5083662;28;20037;-57
2022/12/28 00:43:25;;;;;;;17.58;5.40;;;7.70;99.90;;;;;;5084732;28;20039;-56
2022/12/28 00:45:51;;;;;;;8.82;4.85;;;7.70;99.90;;;;;;5083574;28;20096;-56
2022/12/28 00:48:16;;;;;;;11.55;5.88;;;7.70;99.90;;;;;;5083399;28;20104;-56
2022/12/28 00:50:42;;;;;;;12.18;5.10;;;7.70;99.90;;;;;;5083267;28;20089;-57
2022/12/28 00:53:08;;;;;;;10.32;5.45;;;7.70;99.90;;;;;;5066705;28;20017;-57
2022/12/28 00:55:34;;;;;;;15.38;5.85;;;7.70;99.90;;;;;;5084991;28;20036;-56
2022/12/28 00:58:00;;;;;;;10.20;5.03;;;7.70;99.90;;;;;;5083552;28;20084;-57
2022/12/28 01:00:26;;;;;;;10.45;5.50;;;7.70;99.90;;;;;;5083301;28;20029;-57
2022/12/28 01:02:51;;;;;;;13.27;5.95;;;7.70;99.90;;;;;;5083729;28;20036;-56
2022/12/28 01:05:17;;;;;;;14.10;5.40;;;7.70;99.90;;;;;;5084421;28;20024;-57
2022/12/28 01:07:42;;;;;;;9.63;4.75;;;7.70;99.90;;;;;;5084728;28;20424;-56
2022/12/28 01:10:08;;;;;;;13.82;5.47;;;7.70;99.90;;;;;;5083279;28;20198;-57
2022/12/28 01:12:34;;;;;;;12.30;5.68;;;7.70;99.90;;;;;;5083507;28;20028;-57
2022/12/28 01:14:59;;;;;;;10.23;4.93;;;7.60;99.90;;;;;;5084568;28;20055;-57
2022/12/28 01:17:25;;;;;;;13.75;5.85;;;7.60;99.90;;;;;;5084671;28;20024;-57
2022/12/28 01:19:50;;;;;;;12.68;5.28;;;7.60;99.90;;;;;;5083420;28;20115;-57
2022/12/28 01:22:16;;;;;;;8.95;5.07;;;7.60;99.90;;;;;;5083394;28;20499;-57
2022/12/28 01:24:41;;;;;;;12.43;4.65;;;7.60;99.90;;;;;;5083153;28;20033;-57
2022/12/28 01:27:07;;;;;;;9.40;4.75;;;7.60;99.90;;;;;;5066460;28;20491;-56
2022/12/28 01:29:33;;;;;;;8.20;4.75;;;7.60;99.90;;;;;;5083212;28;20032;-56
2022/12/28 01:31:58;;;;;;;9.77;4.70;;;7.60;99.90;;;;;;5085021;28;20119;-56
2022/12/28 01:34:24;;;;;;;11.50;5.13;;;7.60;99.90;;;;;;5083131;28;20028;-56
2022/12/28 01:36:49;;;;;;;8.63;4.70;;;7.60;99.90;;;;;;5083736;28;20084;-56
2022/12/28 01:39:15;;;;;;;11.07;5.65;;;7.60;99.90;;;;;;5083375;28;20127;-57
2022/12/28 01:41:41;;;;;;;10.00;5.30;;;7.60;99.90;;;;;;5083065;28;20445;-56
2022/12/28 01:44:06;;;;;;;6.47;4.20;;;7.60;99.90;;;;;;5083908;28;20028;-57
2022/12/28 01:46:55;;;;;;;10.45;4.97;;;7.60;99.90;;;;;;5085327;28;20464;-56
2022/12/28 01:49:32;;;;;;;10.38;4.68;;;7.60;99.90;;;;;;5067058;28;20029;-57
2022/12/28 01:52:04;;;;;;;8.75;4.90;;;7.60;99.90;;;;;;5083336;28;20059;-56
2022/12/28 01:54:32;;;;;;;6.78;4.55;;;7.60;99.90;;;;;;5084779;28;20039;-56
2022/12/28 01:56:58;;;;;;;8.65;4.75;;;7.60;99.90;;;;;;5083119;28;20103;-57
2022/12/28 01:59:25;;;;;;;11.75;4.43;;;7.50;99.90;;;;;;5066039;28;20037;-57
2022/12/28 02:01:50;;;;;;;7.32;4.55;;;7.60;99.90;;;;;;5082759;28;20016;-57
2022/12/28 02:04:16;;;;;;;8.32;5.07;;;7.60;99.90;;;;;;5082890;28;20036;-56
2022/12/28 02:06:42;;;;;;;9.32;4.80;;;7.60;99.90;;;;;;5082665;28;20136;-57
2022/12/28 02:09:10;;;;;;;13.90;4.68;;;7.60;99.90;;;;;;5082728;28;20036;-57
2022/12/28 02:11:36;;;;;;;12.25;5.00;;;7.60;99.90;;;;;;5065934;28;20033;-57
2022/12/28 02:14:02;;;;;;;10.30;4.28;;;7.50;99.90;;;;;;5082547;28;20025;-56
2022/12/28 02:16:27;;;;;;;9.68;4.75;;;7.50;99.90;;;;;;5083532;28;20021;-56
2022/12/28 02:18:53;;;;;;;9.43;4.72;;;7.60;99.90;;;;;;5086209;28;20111;-56
2022/12/28 02:21:35;;;;;;;9.32;4.25;;;7.50;99.90;;;;;;5086243;28;20029;-57
2022/12/28 02:24:10;;;;;;;12.82;4.47;;;7.50;99.90;;;;;;5086324;28;20040;-56
2022/12/28 02:26:59;;;;;;;10.25;4.43;;;7.50;99.90;;;;;;5085951;28;20066;-57
2022/12/28 02:30:00;;;;;;;6.47;4.20;;;7.60;99.90;;;;;;5069207;28;20109;-56
2022/12/28 02:32:36;;;;;;;8.65;4.65;;;7.50;99.90;;;;;;5086273;28;20036;-56
2022/12/28 02:35:24;;;;;;;7.47;4.50;;;7.50;99.90;;;;;;5086006;28;20085;-56
2022/12/28 02:38:17;;;;;;;10.75;4.53;;;7.50;99.90;;;;;;5087400;28;20100;-56
2022/12/28 02:40:44;;;;;;;7.80;4.28;;;7.60;99.90;;;;;;5085893;28;20036;-56
2022/12/28 02:43:10;;;;;;;11.70;4.80;;;7.50;99.90;;;;;;5068871;28;20024;-56
2022/12/28 02:51:13;;;;;;;7.65;4.07;;;7.50;99.90;;;;;;5085724;28;20043;-56
2022/12/28 02:54:08;;;;;;;8.48;4.38;;;7.50;99.90;;;;;;5085607;28;20029;-56
2022/12/28 02:56:54;;;;;;;9.40;4.30;;;7.50;99.90;;;;;;5085935;28;20040;-56
2022/12/28 02:59:30;;;;;;;7.20;4.22;;;7.50;99.90;;;;;;5085356;28;20453;-56
2022/12/28 03:02:18;;;;;;;;;;;7.50;99.90;;;;;;5085728;28;20084;-56
2022/12/28 03:04:43;;;;;;;8.50;4.28;;;7.50;99.90;;;;;;5102428;28;19908;-56
2022/12/28 03:10:05;;;;;;;8.48;3.75;;;7.50;99.90;;;;;;5085538;28;20124;-56
2022/12/28 03:12:39;;;;;;;7.53;3.75;;;7.50;99.90;;;;;;5085236;28;20021;-56
2022/12/28 03:15:28;;;;;;;8.18;4.28;;;7.50;99.90;;;;;;5068677;28;20039;-57
2022/12/28 03:31:38;;;;;;;10.23;3.75;;;7.40;99.90;;;;;;5084982;28;20097;-57
2022/12/28 03:34:06;;;;;;;8.35;3.85;;;7.40;99.90;;;;;;5068105;28;20142;-56
2022/12/28 03:36:35;;;;;;;8.60;4.53;;;7.40;99.90;;;;;;5084911;28;20044;-56
2022/12/28 03:39:25;;;;;;;9.77;4.10;;;7.40;99.90;;;;;;5067855;28;20088;-56
2022/12/28 03:44:53;;;;;;;6.32;3.33;;;7.40;99.90;;;;;;5084794;28;20051;-56
2022/12/28 03:47:19;;;;;;;5.22;3.78;;;7.40;99.90;;;;;;5084726;28;20033;-57
2022/12/28 03:49:44;;;;;;;5.72;3.83;;;7.40;99.90;;;;;;5084489;28;20055;-57
2022/12/28 03:52:10;;;;;;;6.55;3.65;;;7.40;99.90;;;;;;5084462;28;20362;-56
2022/12/28 03:54:35;;;;;;;8.95;4.00;;;7.40;99.90;;;;;;5067807;28;20366;-56
2022/12/28 03:57:01;;;;;;;8.30;4.30;;;7.40;99.90;;;;;;5067539;28;20025;-57
2022/12/28 03:59:26;;;;;;;6.35;3.92;;;7.30;99.90;;;;;;5085769;28;20028;-56
2022/12/28 04:01:52;;;;;;;7.65;4.35;;;7.30;99.90;;;;;;5084339;28;20051;-57
2022/12/28 04:04:17;;;;;;;6.68;4.13;;;7.30;99.90;;;;;;5085700;28;20396;-57
2022/12/28 04:06:43;;;;;;;8.50;3.92;;;7.30;99.90;;;;;;5084216;28;20017;-56
2022/12/28 04:09:08;;;;;;;6.85;3.80;;;7.30;99.90;;;;;;5084152;28;20036;-57
2022/12/28 04:11:34;;;;;;;7.30;4.40;;;7.30;99.90;;;;;;5083892;28;20039;-56
2022/12/28 04:13:59;;;;;;;7.63;4.03;;;7.30;99.90;;;;;;5085470;28;20024;-57
2022/12/28 04:16:25;;;;;;;4.45;3.42;;;7.30;99.90;;;;;;5083906;28;20044;-57
2022/12/28 04:18:50;;;;;;;6.28;3.83;;;7.30;99.90;;;;;;5083912;28;20031;-57
2022/12/28 04:21:16;;;;;;;7.05;3.83;;;7.30;99.90;;;;;;5083937;28;20028;-57
2022/12/28 04:23:41;;;;;;;6.63;3.47;;;7.30;99.90;;;;;;5083917;28;20097;-56
2022/12/28 04:26:10;;;;;;;6.93;3.58;;;7.30;99.90;;;;;;5083875;28;20028;-56
2022/12/28 04:28:36;;;;;;;5.32;3.40;;;7.20;99.90;;;;;;5100804;28;20033;-57
2022/12/28 04:31:02;;;;;;;6.20;3.80;;;7.20;99.90;;;;;;5083725;28;20077;-57
2022/12/28 04:33:27;;;;;;;7.22;4.05;;;7.20;99.90;;;;;;5100688;28;20032;-56
2022/12/28 04:35:53;;;;;;;6.88;4.13;;;7.20;99.90;;;;;;5083836;28;20028;-56
2022/12/28 04:38:19;;;;;;;9.43;4.07;;;7.30;99.90;;;;;;5084886;28;20029;-57
2022/12/28 04:40:45;;;;;;;9.20;3.55;;;7.30;99.90;;;;;;5083214;28;20024;-56
2022/12/28 04:43:10;;;;;;;9.60;4.13;;;7.30;99.90;;;;;;5083569;28;20055;-57
2022/12/28 04:45:36;;;;;;;10.05;3.70;;;7.30;99.90;;;;;;5083565;28;20060;-57
2022/12/28 04:48:01;;;;;;;9.43;3.50;;;7.20;99.90;;;;;;5083601;28;20043;-56
2022/12/28 04:50:27;;;;;;;5.55;3.72;;;7.30;99.90;;;;;;5083662;28;20075;-56
2022/12/28 04:52:53;;;;;;;9.70;3.67;;;7.30;99.90;;;;;;5083615;28;20036;-56
2022/12/28 04:55:18;;;;;;;6.90;3.88;;;7.20;99.90;;;;;;5084983;28;20043;-56
2022/12/28 04:57:44;;;;;;;7.80;3.83;;;7.20;99.90;;;;;;5084670;28;20080;-56
2022/12/28 05:00:11;;;;;;;11.43;3.88;;;7.30;99.90;;;;;;5083524;28;20037;-56
2022/12/28 05:02:36;;;;;;;7.30;3.50;;;7.30;99.90;;;;;;5083240;28;20036;-56
2022/12/28 05:05:02;;;;;;;10.95;4.00;;;7.30;99.90;;;;;;5083444;28;20395;-56
2022/12/28 05:07:28;;;;;;;6.18;3.65;;;7.20;99.90;;;;;;5066651;28;20032;-57
2022/12/28 05:09:53;;;;;;;7.63;3.92;;;7.30;99.90;;;;;;5083415;28;20029;-57
2022/12/28 05:12:19;;;;;;;4.82;3.30;;;7.20;99.90;;;;;;5083488;28;20139;-56
2022/12/28 05:14:45;;;;;;;8.50;3.63;;;7.20;99.90;;;;;;5083323;28;20067;-57
2022/12/28 05:17:10;;;;;;;11.68;4.05;;;7.20;99.90;;;;;;5084743;28;20063;-56
2022/12/28 05:19:36;;;;;;;5.70;4.00;;;7.20;99.90;;;;;;5084665;28;20076;-56
2022/12/28 05:22:02;;;;;;;9.15;4.28;;;7.20;99.90;;;;;;5083309;28;20028;-56
2022/12/28 05:24:27;;;;;;;8.25;3.70;;;7.20;99.90;;;;;;5083128;28;20024;-57
2022/12/28 05:26:53;;;;;;;7.70;3.47;;;7.20;99.90;;;;;;5066375;28;20064;-56
2022/12/28 05:29:18;;;;;;;8.02;3.70;;;7.20;99.90;;;;;;5084537;28;20029;-57
2022/12/28 05:31:44;;;;;;;6.78;4.35;;;7.20;99.90;;;;;;5084544;28;20059;-56
2022/12/28 05:34:09;;;;;;;6.20;3.83;;;7.20;99.90;;;;;;5083158;28;20032;-57
2022/12/28 05:36:36;;;;;;;6.28;3.33;;;7.20;99.90;;;;;;5083164;28;20035;-56
2022/12/28 05:39:02;;;;;;;7.72;3.47;;;7.20;99.90;;;;;;5083113;28;20029;-56
2022/12/28 05:41:28;;;;;;;6.93;3.17;;;7.10;99.90;;;;;;5082923;28;20029;-57
2022/12/28 05:43:54;;;;;;;6.90;3.40;;;7.20;99.90;;;;;;5083017;28;20377;-56
2022/12/28 05:46:23;;;;;;;7.03;3.50;;;7.20;99.90;;;;;;5084596;28;20028;-56
2022/12/28 05:48:49;;;;;;;8.02;3.60;;;7.10;99.90;;;;;;5082885;28;20039;-57
2022/12/28 05:51:18;;;;;;;5.22;3.33;;;7.10;99.90;;;;;;5085070;28;20025;-57
2022/12/28 05:53:44;;;;;;;4.90;3.28;;;7.10;99.90;;;;;;5086619;28;20032;-56
2022/12/28 05:56:11;;;;;;;7.00;3.50;;;7.10;99.90;;;;;;5086918;28;20016;-56
2022/12/28 05:58:37;;;;;;;4.97;2.83;;;7.10;99.90;;;;;;5086588;28;20040;-57
2022/12/28 06:01:09;;;;;;;8.55;3.22;;;7.10;99.90;;;;;;5086769;28;20024;-57
2022/12/28 06:03:35;;;;;;;4.07;3.08;;;7.10;99.90;;;;;;5086338;28;20032;-56
2022/12/28 06:06:22;;;;;;;6.82;3.45;;;7.10;99.90;;;;;;5088024;28;20344;-57
2022/12/28 06:08:48;;;;;;;5.50;3.10;;;7.10;99.90;;;;;;5072466;28;20045;-56
2022/12/28 06:11:21;;;;;;;5.90;2.97;;;7.10;99.90;;;;;;5086370;28;20027;-56
2022/12/28 06:13:47;;;;;;;4.78;3.42;;;7.10;99.90;;;;;;5086244;28;20033;-56
2022/12/28 06:16:17;;;;;;;4.80;3.00;;;7.10;99.90;;;;;;5086326;28;20020;-56
2022/12/28 06:18:43;;;;;;;4.78;2.95;;;7.10;99.90;;;;;;5086354;28;20063;-56
2022/12/28 06:21:18;;;;;;;6.05;2.95;;;7.10;99.90;;;;;;5087693;28;20421;-57
2022/12/28 06:23:44;;;;;;;7.32;2.95;;;7.10;99.90;;;;;;5086085;28;20041;-56
2022/12/28 06:26:11;;;;;;;6.75;3.45;;;7.10;99.90;;;;;;5086287;28;20506;-56
2022/12/28 06:28:37;;;;;;;10.02;3.53;;;7.10;99.90;;;;;;5086143;28;20107;-56
2022/12/28 06:31:09;;;;;;;4.75;3.20;;;7.10;99.90;;;;;;5086198;28;20122;-56
2022/12/28 06:33:35;;;;;;;5.75;3.13;;;7.10;99.90;;;;;;5069553;28;20136;-56
2022/12/28 06:36:00;;;;;;;6.55;2.88;;;7.10;99.90;;;;;;5087485;28;20052;-56
2022/12/28 06:38:28;;;;;;;4.85;3.13;;;7.10;99.90;;;;;;5085855;28;20025;-56
2022/12/28 06:40:53;;;;;;;6.85;3.25;;;7.00;99.90;;;;;;5086233;28;20025;-56
2022/12/28 06:43:19;;;;;;;6.03;3.47;;;7.10;99.90;;;;;;5087043;28;20058;-57
2022/12/28 06:45:55;;;;;;;6.53;3.42;;;7.10;99.90;;;;;;5087011;28;20029;-57
2022/12/28 06:48:20;;;;;;;6.47;3.22;;;7.00;99.90;;;;;;5085654;28;20033;-57
2022/12/28 06:51:06;;;;;;;5.22;2.90;;;7.10;99.90;;;;;;5086939;28;20055;-57
2022/12/28 06:53:35;;;;;;;;;;;7.10;99.90;;;;;;5086108;28;20075;-56
2022/12/28 06:56:03;;;;;;;6.65;3.63;;;7.00;99.90;;;;;;5087116;28;19930;-57
2022/12/28 06:58:28;;;;;;;6.35;3.40;;;7.00;99.90;;;;;;5085617;28;20036;-56
2022/12/28 07:00:54;;;;;;;7.03;4.35;;;7.00;99.90;;;;;;5069212;28;20028;-56
2022/12/28 07:03:20;;;;;;;5.63;3.33;;;7.00;99.90;;;;;;5086479;28;20033;-56
2022/12/28 07:05:46;;;;;;;5.57;3.20;;;7.00;99.90;;;;;;5085669;28;20306;-57
2022/12/28 07:08:11;;;;;;;6.20;3.30;;;7.00;99.90;;;;;;5086825;28;20035;-56
2022/12/28 07:10:37;;;;;;;5.88;3.55;;;7.00;99.90;;;;;;5086594;28;20017;-56
2022/12/28 07:13:03;;;;;;;9.40;3.67;;;7.00;99.90;;;;;;5085484;28;20033;-56
2022/12/28 07:15:29;;;;;;;9.63;4.15;;;7.00;99.90;;;;;;5085396;28;20107;-56
2022/12/28 07:17:54;;;;;;;11.70;4.43;;;6.90;99.90;;;;;;5086477;28;20468;-56
2022/12/28 07:20:20;;;;;;;8.30;4.50;;;6.90;99.90;;;;;;5086616;28;20056;-56
2022/12/28 07:22:45;;;;;;;9.93;4.57;;;6.90;99.90;;;;;;5068286;28;20078;-56
2022/12/28 07:25:11;;;;;;;12.35;4.78;;;6.90;99.90;;;;;;5084893;28;20032;-56
2022/12/28 07:27:36;;;;;;;9.63;4.43;;;6.90;99.90;;;;;;5086284;28;20028;-56
2022/12/28 07:30:03;;;;;;;10.07;4.78;;;6.90;99.90;;;;;;5084836;28;20048;-56
2022/12/28 07:32:28;;;;;;;7.90;4.20;;;6.90;99.90;;;;;;5086298;28;20028;-56
2022/12/28 07:34:54;;;;;;;9.13;4.15;;;6.90;99.90;;;;;;5085000;28;20032;-56
2022/12/28 07:37:19;;;;;;;7.55;3.72;;;6.90;99.90;;;;;;5067989;28;20040;-56
2022/12/28 07:39:45;;;;;;;6.82;4.15;;;6.90;99.90;;;;;;5086311;28;20066;-57
2022/12/28 07:42:11;;;;;;;6.63;4.00;;;6.90;99.90;;;;;;5084801;28;20036;-57
2022/12/28 07:44:37;;;;;;;8.55;3.90;;;6.90;99.90;;;;;;5084399;28;20064;-57
2022/12/28 07:47:02;;;;;;;8.88;4.13;;;6.90;99.90;;;;;;5084553;28;20028;-56
2022/12/28 07:49:28;;;;;;;10.73;5.95;;;6.80;99.90;;;;;;5085833;28;20039;-56
2022/12/28 07:51:54;;;;;;;12.75;6.70;;;6.90;99.90;;;;;;5084586;28;20017;-56
2022/12/28 07:54:19;;;;;;;11.20;6.63;;;6.90;99.90;;;;;;5084281;28;20048;-57
2022/12/28 07:56:45;;;;;;;11.80;6.22;;;6.90;99.90;;;;;;5067665;28;20012;-57
2022/12/28 07:59:12;;;;;;;11.32;6.68;;;6.90;99.90;;;;;;5085734;28;20033;-56
2022/12/28 08:01:38;;;;;;;14.30;6.90;;;6.90;99.90;;;;;;5084432;28;20030;-56
2022/12/28 08:04:05;;;;;;;14.75;6.70;;;6.90;99.90;;;;;;5085986;28;20036;-56
2022/12/28 08:06:33;;;;;;;13.20;7.32;;;6.90;99.90;;;;;;5084483;28;20039;-56
2022/12/28 08:08:59;;;;;;;20.02;11.20;;;6.90;99.90;;;;;;5084361;28;20032;-56
2022/12/28 08:11:26;;;;;;;14.27;7.97;;;6.90;99.90;;;;;;5084446;28;20388;-56
2022/12/28 08:13:53;;;;;;;22.38;8.77;;;6.90;99.90;;;;;;5083587;28;20028;-56
2022/12/28 08:16:19;;;;;;;17.20;8.05;;;6.90;99.90;;;;;;5084198;28;20021;-57
2022/12/28 08:18:45;;;;;;;14.85;7.65;;;7.00;99.90;;;;;;5084167;28;20032;-56
2022/12/28 08:21:31;;;;;;;16.92;7.65;;;7.00;99.90;;;;;;5084251;28;20043;-56
2022/12/28 08:23:57;;;;;;;20.05;8.05;;;7.00;99.90;;;;;;5083828;28;20492;-57
2022/12/28 08:26:25;;;;;;;18.70;7.68;;;7.00;99.90;;;;;;5083993;28;20031;-56
2022/12/28 08:28:52;;;;;;;14.32;7.72;;;7.00;99.90;;;;;;5083874;28;20036;-56
2022/12/28 08:31:25;;;;;;;17.92;7.93;;;7.00;99.90;;;;;;5083752;28;20035;-57
2022/12/28 08:33:52;;;;;;;14.30;7.45;;;7.00;99.90;;;;;;5083698;28;20039;-57
2022/12/28 08:36:17;;;;;;;18.88;7.72;;;7.10;99.90;;;;;;5083914;28;20078;-57
2022/12/28 08:38:43;;;;;;;15.88;7.05;;;7.10;99.90;;;;;;5066853;28;20096;-56
2022/12/28 08:41:11;;;;;;;24.75;8.40;;;7.10;99.90;;;;;;5084107;28;20253;-56
2022/12/28 08:43:36;;;;;;;23.02;7.88;;;7.10;99.90;;;;;;5066951;28;20051;-56
2022/12/28 08:46:04;;;;;;;23.27;7.63;;;7.10;99.90;;;;;;5085197;28;20024;-56
2022/12/28 08:48:30;;;;;;;24.67;7.93;;;7.10;99.90;;;;;;5083940;28;20037;-56
2022/12/28 08:51:01;;;;;;;17.10;7.30;;;7.10;99.90;;;;;;5085308;28;20112;-56
2022/12/28 08:53:26;;;;;;;16.25;6.82;;;7.10;99.90;;;;;;5084263;28;20036;-56
2022/12/28 08:55:52;;;;;;;17.17;6.50;;;7.20;99.90;;;;;;5083772;28;20027;-56
2022/12/28 08:58:18;;;;;;;17.63;7.18;;;7.10;99.90;;;;;;5083748;28;20029;-57
2022/12/28 09:00:43;;;;;;;25.55;6.85;;;7.20;99.90;;;;;;5083572;28;20484;-57
2022/12/28 09:03:09;;;;;;;13.80;5.80;;;7.20;99.90;;;;;;5084174;28;20048;-56
2022/12/28 09:05:38;;;;;;;18.48;6.18;;;7.20;99.90;;;;;;5083388;28;20104;-56
2022/12/28 09:08:04;;;;;;;24.92;5.90;;;7.20;99.90;;;;;;5083236;28;20025;-56
2022/12/28 09:10:29;;;;;;;18.08;6.78;;;7.20;99.90;;;;;;5084629;28;20082;-57
2022/12/28 09:12:55;;;;;;;28.27;7.18;;;7.20;99.90;;;;;;5083330;28;20024;-56
2022/12/28 09:15:20;;;;;;;27.10;7.50;;;7.20;99.90;;;;;;5083185;28;20043;-57
2022/12/28 09:17:47;;;;;;;13.48;5.97;;;7.20;99.90;;;;;;5083231;28;20072;-56
2022/12/28 09:20:12;;;;;;;24.02;7.22;;;7.20;99.90;;;;;;5084589;28;20058;-57
2022/12/28 09:22:38;;;;;;;28.65;6.65;;;7.20;99.90;;;;;;5084574;28;20036;-57
2022/12/28 09:25:04;;;;;;;31.67;6.90;;;7.30;99.90;;;;;;5083388;28;20040;-57
2022/12/28 09:27:29;;;;;;;20.67;6.68;;;7.30;99.90;;;;;;5088562;28;20032;-56
2022/12/28 09:29:55;;;;;;;31.50;8.45;;;7.30;99.90;;;;;;5088602;28;20086;-57
2022/12/28 09:32:20;;;;;;;34.50;7.25;;;7.30;99.90;;;;;;5088506;28;20372;-57
2022/12/28 09:34:46;;;;;;;35.13;6.93;;;7.30;99.90;;;;;;5087163;28;20060;-57
2022/12/28 09:37:11;;;;;;;26.13;6.90;;;7.40;99.90;;;;;;5088571;28;20017;-56
2022/12/28 09:39:37;;;;;;;25.48;5.97;;;7.40;99.90;;;;;;5088407;28;20039;-56
2022/12/28 09:42:24;;;;;;;27.10;5.93;;;7.40;99.90;;;;;;5087052;28;20021;-56
2022/12/28 09:45:02;;;;;;;48.55;7.88;;;7.50;99.90;;;;;;5086870;28;20041;-56
2022/12/28 09:47:46;;;;;;;41.17;9.00;;;7.50;99.90;;;;;;5086988;28;20021;-57
2022/12/28 09:50:17;;;;;;;47.50;6.82;;;7.50;99.90;;;;;;5086638;28;20040;-57
2022/12/28 09:52:58;;;;;;;24.02;6.30;;;7.50;99.90;;;;;;5088300;28;20024;-56
2022/12/28 09:55:24;;;;;;;53.67;11.75;;;7.50;99.90;;;;;;5086768;28;20055;-56
2022/12/28 09:57:51;;;;;;;47.55;9.45;;;7.50;99.90;;;;;;5086986;28;20029;-56
2022/12/28 10:00:25;;;;;;;171.85;17.40;;;7.60;99.90;;;;;;5086650;28;20449;-56
2022/12/28 10:02:55;;;;;;;147.68;17.10;;;7.60;99.90;;;;;;5088219;28;20035;-56
2022/12/28 10:05:21;;;;;;;94.78;12.32;;;7.60;99.90;;;;;;5086761;28;20040;-56
2022/12/28 10:07:46;;;;;;;74.10;10.20;;;7.60;99.90;;;;;;5086497;28;20043;-56
2022/12/28 10:10:16;;;;;;;60.35;8.35;;;7.70;99.90;;;;;;5086538;28;20116;-57
2022/12/28 10:12:42;;;;;;;48.03;8.43;;;7.70;99.90;;;;;;5086543;28;20020;-56
2022/12/28 10:15:12;;;;;;;44.78;7.60;;;7.70;99.90;;;;;;5086234;28;20056;-56
2022/12/28 10:17:38;;;;;;;41.97;7.32;;;7.70;99.90;;;;;;5086300;28;20078;-57
2022/12/28 10:20:06;;;;;;;39.22;7.22;;;7.80;99.90;;;;;;5086380;28;20032;-56
2022/12/28 10:22:37;;;;;;;70.43;9.27;;;7.80;99.90;;;;;;5086036;28;20461;-56
2022/12/28 10:25:11;;;;;;;68.85;9.75;;;7.80;99.90;;;;;;5086059;28;20094;-57
2022/12/28 10:27:37;;;;;;;33.00;7.28;;;7.90;99.90;;;;;;5085833;28;20071;-56
2022/12/28 10:30:09;;;;;;;59.42;9.13;;;7.80;99.90;;;;;;5086105;28;20037;-56
2022/12/28 10:32:58;;;;;;;55.97;8.63;;;7.90;99.90;;;;;;5086660;28;20051;-57
2022/12/28 10:35:27;;;;;;;60.88;8.60;;;7.90;99.90;;;;;;5086184;28;20058;-56
2022/12/28 10:38:17;;;;;;;74.93;10.68;;;7.90;99.90;;;;;;5085960;28;20116;-56
2022/12/28 10:40:42;;;;;;;84.40;11.18;;;7.90;99.90;;;;;;5084693;28;20032;-56
2022/12/28 10:43:19;;;;;;;86.35;10.20;;;8.00;99.90;;;;;;5068152;28;20040;-56
2022/12/28 10:45:46;;;;;;;65.80;10.00;;;8.00;99.90;;;;;;5080386;28;20111;-57
2022/12/28 10:48:17;;;;;;;58.83;9.90;;;8.00;99.90;;;;;;5066007;28;20025;-57
2022/12/28 10:51:00;;;;;;;60.63;9.65;;;8.00;99.90;;;;;;5082667;28;21181;-56
2022/12/28 10:53:29;;;;;;;70.40;9.45;;;8.10;99.90;;;;;;5081790;28;20037;-57
2022/12/28 10:56:27;;;;;;;75.50;10.27;;;8.10;99.90;;;;;;5071802;28;20028;-56
2022/12/28 10:58:54;;;;;;;74.82;9.88;;;8.10;99.90;;;;;;5076483;28;20032;-56
2022/12/28 11:01:22;;;;;;;71.70;10.27;;;8.20;99.90;;;;;;5081789;28;20083;-57
2022/12/28 11:03:54;;;;;;;68.00;10.05;;;8.20;99.90;;;;;;5082220;28;20052;-56
2022/12/28 11:06:24;;;;;;;72.82;10.55;;;8.20;99.90;;;;;;5084574;28;20076;-56
2022/12/28 11:09:11;;;;;;;67.15;9.85;;;8.20;99.90;;;;;;5095032;28;20060;-56
2022/12/28 11:11:36;;;;;;;77.47;10.38;;;8.30;99.90;;;;;;5083783;28;20029;-56
2022/12/28 11:14:09;;;;;;;99.75;11.52;;;8.30;99.90;;;;;;5067400;28;20128;-57
2022/12/28 11:16:36;;;;;;;63.05;8.63;;;8.30;99.90;;;;;;5098226;28;20021;-57
2022/12/28 11:19:01;;;;;;;90.70;11.48;;;8.30;99.90;;;;;;5084397;28;20043;-56
2022/12/28 11:21:27;;;;;;;64.95;9.57;;;8.40;99.90;;;;;;5072189;28;20033;-56
2022/12/28 11:23:52;;;;;;;91.72;11.43;;;8.40;99.90;;;;;;5078887;28;20039;-56
2022/12/28 11:26:19;;;;;;;84.22;9.88;;;8.40;99.90;;;;;;5097538;28;20040;-57
2022/12/28 11:28:47;;;;;;;158.38;15.57;;;8.50;99.90;;;;;;5069945;28;20523;-56
2022/12/28 11:31:23;;;;;;;143.77;14.45;;;8.50;99.90;;;;;;5088125;28;20039;-57
2022/12/28 11:33:50;;;;;;;92.15;10.45;;;8.50;99.90;;;;;;5068597;28;20090;-57
2022/12/28 11:36:23;;;;;;;88.70;11.05;;;8.50;99.90;;;;;;5086714;28;20025;-57
2022/12/28 11:38:52;;;;;;;83.70;11.30;;;8.50;99.90;;;;;;5100275;28;20445;-56
2022/12/28 11:41:24;;;;;;;99.57;12.77;;;8.50;99.90;;;;;;5076523;28;20060;-56
2022/12/28 11:43:53;;;;;;;85.63;11.15;;;8.60;99.90;;;;;;5092509;28;20572;-56
2022/12/28 11:46:21;;;;;;;69.93;11.55;;;8.60;99.90;;;;;;5092108;28;20028;-56
2022/12/28 11:48:58;;;;;;;155.45;13.95;;;8.60;99.90;;;;;;5100272;28;20025;-57
2022/12/28 11:51:31;;;;;;;131.02;15.48;;;8.60;99.90;;;;;;5085900;28;20048;-56
2022/12/28 11:53:58;;;;;;;156.50;17.75;;;8.60;99.90;;;;;;5103013;28;20415;-56
2022/12/28 11:56:26;;;;;;;137.80;14.20;;;8.70;99.90;;;;;;5081267;28;20048;-57
2022/12/28 11:58:57;;;;;;;150.05;17.88;;;8.70;99.90;;;;;;5081668;28;20032;-57
2022/12/28 12:01:31;;;;;;;154.45;17.35;;;8.70;99.80;;;;;;5072220;28;20045;-56
2022/12/28 12:03:56;;;;;;;106.75;16.27;;;8.70;99.80;;;;;;5084215;28;20036;-57
2022/12/28 12:06:40;;;;;;;128.45;16.08;;;8.70;99.70;;;;;;5087086;28;20063;-56
2022/12/28 12:09:22;;;;;;;174.50;17.50;;;8.80;99.60;;;;;;5090593;28;20029;-56
2022/12/28 12:11:49;;;;;;;171.15;16.33;;;8.80;99.40;;;;;;5092503;28;20039;-56
2022/12/28 12:14:15;;;;;;;141.02;17.90;;;8.80;99.30;;;;;;5080446;28;20028;-57
2022/12/28 12:16:48;;;;;;;162.25;18.38;;;8.80;99.30;;;;;;5063813;28;20056;-57
2022/12/28 12:19:25;;;;;;;166.48;18.10;;;8.90;99.20;;;;;;5063894;28;20041;-56
2022/12/28 12:22:09;;;;;;;118.90;14.38;;;8.90;99.40;;;;;;5062544;28;20092;-57
2022/12/28 12:24:40;;;;;;;103.32;13.88;;;8.90;99.40;;;;;;5079373;28;20088;-56
2022/12/28 12:27:24;;;;;;;187.45;18.33;;;8.90;99.30;;;;;;5063735;28;20097;-56
2022/12/28 12:29:56;;;;;;;128.40;18.65;;;9.00;99.20;;;;;;5063818;28;20029;-57
2022/12/28 12:32:44;;;;;;;168.00;18.85;;;9.00;99.20;;;;;;5063612;28;20075;-56
2022/12/28 12:35:31;;;;;;;159.88;17.05;;;9.00;99.10;;;;;;5063388;28;20092;-56
2022/12/28 12:38:06;;;;;;;163.50;19.15;;;9.00;99.00;;;;;;5080011;28;20036;-57
2022/12/28 12:41:09;;;;;;;144.50;17.57;;;8.70;99.10;;;;;;5077484;28;20040;-56
2022/12/28 12:43:59;;;;;;;133.48;16.35;;;9.10;99.10;;;;;;5083900;28;20274;-57
2022/12/28 12:46:39;;;;;;;119.20;15.57;;;9.10;99.00;;;;;;5084651;28;20048;-57
2022/12/28 12:49:11;;;;;;;162.18;18.77;;;9.10;99.00;;;;;;5082180;28;20053;-57
2022/12/28 12:51:49;;;;;;;174.30;18.20;;;9.10;98.90;;;;;;5083915;28;20028;-56
2022/12/28 12:54:15;;;;;;;185.90;18.45;;;9.10;98.80;;;;;;5081387;28;20020;-57
2022/12/28 12:56:54;;;;;;;163.55;17.60;;;9.20;98.80;;;;;;5084231;28;20118;-56
2022/12/28 12:59:38;;;;;;;145.63;18.00;;;9.20;98.60;;;;;;5082140;28;20050;-56
2022/12/28 13:02:38;;;;;;;237.02;23.80;;;9.20;98.40;;;;;;5083821;28;20035;-57
2022/12/28 13:05:04;;;;;;;224.48;22.95;;;9.20;98.40;;;;;;5083167;28;20036;-57
2022/12/28 13:07:30;;;;;;;233.98;23.92;;;9.20;98.40;;;;;;5082989;28;20111;-57
2022/12/28 13:10:01;;;;;;;185.88;19.10;;;9.20;98.50;;;;;;5083327;28;20085;-56
2022/12/28 13:12:26;;;;;;;168.98;18.48;;;9.30;98.50;;;;;;5083226;28;20447;-57
2022/12/28 13:14:57;;;;;;;204.38;19.95;;;9.30;98.30;;;;;;5083171;28;20024;-56
2022/12/28 13:17:23;;;;;;;195.45;20.63;;;9.30;98.20;;;;;;5083013;28;20082;-57
2022/12/28 13:19:48;;;;;;;226.85;23.30;;;9.30;98.10;;;;;;5082938;28;20024;-56
2022/12/28 13:22:31;;;;;;;309.10;28.90;;;9.30;98.00;;;;;;5082894;28;20477;-56
2022/12/28 13:24:57;;;;;;;197.18;19.65;;;9.40;98.00;;;;;;5082680;28;20195;-56